createdAt,value
2019-05-06T00:00:00.952Z,8.40
2019-05-06T00:01:00.948Z,8.48
2019-05-06T00:02:00.919Z,8.40
2019-05-06T00:03:00.909Z,8.45
2019-05-06T00:04:01.097Z,8.44
2019-05-06T00:05:00.890Z,8.48
2019-05-06T00:06:00.903Z,8.43
2019-05-06T00:07:00.873Z,8.37
2019-05-06T00:08:00.853Z,8.34
2019-05-06T00:09:00.842Z,8.34
2019-05-06T00:10:00.831Z,8.37
2019-05-06T00:11:00.817Z,8.40
2019-05-06T00:12:00.834Z,8.30
2019-05-06T00:13:00.799Z,8.37
2019-05-06T00:14:00.785Z,8.40
2019-05-06T00:15:00.783Z,8.38
2019-05-06T00:16:00.764Z,8.36
2019-05-06T00:17:00.751Z,8.37
2019-05-06T00:18:00.771Z,8.33
2019-05-06T00:19:00.729Z,8.26
2019-05-06T00:20:00.717Z,8.29
2019-05-06T00:21:00.706Z,8.22
2019-05-06T00:22:00.698Z,8.30
2019-05-06T00:23:00.684Z,8.20
2019-05-06T00:24:00.691Z,8.28
2019-05-06T00:25:00.660Z,8.26
2019-05-06T00:26:00.653Z,8.34
2019-05-06T00:27:00.637Z,8.38
2019-05-06T00:28:00.628Z,8.37
2019-05-06T00:29:00.645Z,8.38
2019-05-06T00:30:00.608Z,8.30
2019-05-06T00:31:10.346Z,8.34
2019-05-06T00:32:01.591Z,8.28
2019-05-06T00:33:00.574Z,8.34
2019-05-06T00:34:00.563Z,8.37
2019-05-06T00:35:00.576Z,8.33
2019-05-06T00:36:00.693Z,8.29
2019-05-06T00:37:00.527Z,8.28
2019-05-06T00:38:00.514Z,8.26
2019-05-06T00:39:00.504Z,8.25
2019-05-06T00:40:00.498Z,8.18
2019-05-06T00:41:00.500Z,8.23
2019-05-06T00:42:00.470Z,8.25
2019-05-06T00:43:00.461Z,8.20
2019-05-06T00:44:00.448Z,8.28
2019-05-06T00:45:00.436Z,8.26
2019-05-06T00:46:00.445Z,8.25
2019-05-06T00:47:00.414Z,8.28
2019-05-06T00:48:00.403Z,8.33
2019-05-06T00:49:00.391Z,8.34
2019-05-06T00:50:00.378Z,8.33
2019-05-06T00:51:00.385Z,8.37
2019-05-06T00:52:00.363Z,8.41
2019-05-06T00:53:00.345Z,8.41
2019-05-06T00:54:00.334Z,8.44
2019-05-06T00:55:00.323Z,8.44
2019-05-06T00:56:00.328Z,8.40
2019-05-06T00:57:00.301Z,8.44
2019-05-06T00:58:00.289Z,8.41
2019-05-06T00:59:00.279Z,8.43
2019-05-06T01:00:00.266Z,8.48
2019-05-06T01:01:00.274Z,8.50
2019-05-06T01:02:00.242Z,8.58
2019-05-06T01:03:00.234Z,8.56
2019-05-06T01:04:00.227Z,8.56
2019-05-06T01:05:00.209Z,8.58
2019-05-06T01:06:00.216Z,8.58
2019-05-06T01:07:00.187Z,8.52
2019-05-06T01:08:00.178Z,8.53
2019-05-06T01:09:00.164Z,8.48
2019-05-06T01:10:00.155Z,8.55
2019-05-06T01:11:00.160Z,8.58
2019-05-06T01:12:00.134Z,8.53
2019-05-06T01:13:00.122Z,8.56
2019-05-06T01:14:00.108Z,8.56
2019-05-06T01:15:00.098Z,8.56
2019-05-06T01:16:00.102Z,8.56
2019-05-06T01:17:00.074Z,8.59
2019-05-06T01:18:00.066Z,8.43
2019-05-06T01:19:00.053Z,8.47
2019-05-06T01:20:00.046Z,8.48
2019-05-06T01:21:00.045Z,8.43
2019-05-06T01:22:00.018Z,8.41
2019-05-06T01:23:00.008Z,8.44
2019-05-06T01:23:59.996Z,8.44
2019-05-06T01:24:59.987Z,8.45
2019-05-06T01:25:59.991Z,8.44
2019-05-06T01:26:59.966Z,8.43
2019-05-06T01:27:59.952Z,8.45
2019-05-06T01:28:59.944Z,8.44
2019-05-06T01:29:59.928Z,8.48
2019-05-06T01:30:59.944Z,8.44
2019-05-06T01:31:59.906Z,8.48
2019-05-06T01:32:59.896Z,8.44
2019-05-06T01:33:59.884Z,8.47
2019-05-06T01:34:59.875Z,8.44
2019-05-06T01:35:59.870Z,8.56
2019-05-06T01:36:59.878Z,8.47
2019-05-06T01:37:59.839Z,8.44
2019-05-06T01:38:59.828Z,8.45
2019-05-06T01:39:59.820Z,8.41
2019-05-06T01:40:59.806Z,8.43
2019-05-06T01:41:59.796Z,8.44
2019-05-06T01:42:59.812Z,8.45
2019-05-06T01:43:59.772Z,8.44
2019-05-06T01:44:59.760Z,8.41
2019-05-06T01:45:59.750Z,8.40
2019-05-06T01:46:59.737Z,8.50
2019-05-06T01:47:59.730Z,8.43
2019-05-06T01:48:59.737Z,8.40
2019-05-06T01:49:59.703Z,8.41
2019-05-06T01:50:59.691Z,8.52
2019-05-06T01:51:59.680Z,8.44
2019-05-06T01:52:59.670Z,8.45
2019-05-06T01:53:59.689Z,8.44
2019-05-06T01:54:59.646Z,8.38
2019-05-06T01:55:59.635Z,8.43
2019-05-06T01:56:59.624Z,8.44
2019-05-06T01:57:59.614Z,8.44
2019-05-06T01:58:59.604Z,8.43
2019-05-06T01:59:59.618Z,8.34
2019-05-06T02:00:59.580Z,8.36
2019-05-06T02:02:01.160Z,8.44
2019-05-06T02:02:59.558Z,8.29
2019-05-06T02:03:59.553Z,8.30
2019-05-06T02:04:59.536Z,8.30
2019-05-06T02:05:59.541Z,8.30
2019-05-06T02:06:59.514Z,8.29
2019-05-06T02:07:59.504Z,8.30
2019-05-06T02:08:59.489Z,8.28
2019-05-06T02:09:59.480Z,8.33
2019-05-06T02:10:59.487Z,8.29
2019-05-06T02:11:59.457Z,8.28
2019-05-06T02:12:59.445Z,8.29
2019-05-06T02:13:59.435Z,8.33
2019-05-06T02:14:59.426Z,8.29
2019-05-06T02:15:59.441Z,8.28
2019-05-06T02:16:59.399Z,8.25
2019-05-06T02:17:59.387Z,8.26
2019-05-06T02:18:59.378Z,8.20
2019-05-06T02:19:59.364Z,8.28
2019-05-06T02:20:59.365Z,8.23
2019-05-06T02:21:59.364Z,8.16
2019-05-06T02:22:59.332Z,8.20
2019-05-06T02:23:59.319Z,8.23
2019-05-06T02:24:59.317Z,8.22
2019-05-06T02:25:59.298Z,8.18
2019-05-06T02:26:59.304Z,8.20
2019-05-06T02:27:59.275Z,8.16
2019-05-06T02:28:59.263Z,8.08
2019-05-06T02:29:59.251Z,8.16
2019-05-06T02:30:59.240Z,8.18
2019-05-06T02:32:16.167Z,8.08
2019-05-06T02:33:00.219Z,8.12
2019-05-06T02:33:59.207Z,8.08
2019-05-06T02:34:59.199Z,8.00
2019-05-06T02:35:59.189Z,8.05
2019-05-06T02:36:59.206Z,7.97
2019-05-06T02:37:59.168Z,7.86
2019-05-06T02:38:59.151Z,7.87
2019-05-06T02:39:59.142Z,7.80
2019-05-06T02:40:59.128Z,7.90
2019-05-06T02:41:59.123Z,7.89
2019-05-06T02:42:59.126Z,7.82
2019-05-06T02:43:59.099Z,7.85
2019-05-06T02:44:59.084Z,7.69
2019-05-06T02:45:59.078Z,7.79
2019-05-06T02:46:59.066Z,7.74
2019-05-06T02:47:59.068Z,7.74
2019-05-06T02:48:59.039Z,7.61
2019-05-06T02:49:59.030Z,7.67
2019-05-06T02:50:59.033Z,7.61
2019-05-06T02:51:59.006Z,7.63
2019-05-06T02:52:59.031Z,7.55
2019-05-06T02:53:58.984Z,7.55
2019-05-06T02:54:58.969Z,7.53
2019-05-06T02:55:58.961Z,7.49
2019-05-06T02:56:58.948Z,7.46
2019-05-06T02:57:58.938Z,7.61
2019-05-06T02:58:58.955Z,7.53
2019-05-06T02:59:58.921Z,7.53
2019-05-06T03:00:58.904Z,7.48
2019-05-06T03:01:58.892Z,7.42
2019-05-06T03:02:58.880Z,7.50
2019-05-06T03:03:58.869Z,7.46
2019-05-06T03:04:58.908Z,7.53
2019-05-06T03:05:58.852Z,7.49
2019-05-06T03:06:58.835Z,7.50
2019-05-06T03:07:58.823Z,7.50
2019-05-06T03:08:58.811Z,7.50
2019-05-06T03:09:58.803Z,7.48
2019-05-06T03:10:58.805Z,7.50
2019-05-06T03:11:58.812Z,7.45
2019-05-06T03:12:58.768Z,7.46
2019-05-06T03:13:58.755Z,7.50
2019-05-06T03:14:58.749Z,7.48
2019-05-06T03:15:58.749Z,7.49
2019-05-06T03:16:58.727Z,7.49
2019-05-06T03:17:58.715Z,7.45
2019-05-06T03:18:58.712Z,7.53
2019-05-06T03:19:58.687Z,7.46
2019-05-06T03:20:58.703Z,7.46
2019-05-06T03:21:58.670Z,7.39
2019-05-06T03:22:58.653Z,7.31
2019-05-06T03:23:58.640Z,7.37
2019-05-06T03:24:58.630Z,7.37
2019-05-06T03:25:58.641Z,7.34
2019-05-06T03:26:58.606Z,7.39
2019-05-06T03:27:58.600Z,7.32
2019-05-06T03:28:58.586Z,7.39
2019-05-06T03:29:58.581Z,7.32
2019-05-06T03:30:58.593Z,7.32
2019-05-06T03:31:58.552Z,7.28
2019-05-06T03:33:35.401Z,7.20
2019-05-06T03:34:22.497Z,7.28
2019-05-06T03:35:22.932Z,7.20
2019-05-06T03:36:13.751Z,7.21
2019-05-06T03:36:59.493Z,7.23
2019-05-06T03:37:58.482Z,7.25
2019-05-06T03:38:58.473Z,7.24
2019-05-06T03:39:58.462Z,7.20
2019-05-06T03:40:58.449Z,7.15
2019-05-06T03:41:58.465Z,7.16
2019-05-06T03:42:58.448Z,7.21
2019-05-06T03:43:58.420Z,7.15
2019-05-06T03:44:58.402Z,7.21
2019-05-06T03:45:58.396Z,7.15
2019-05-06T03:46:58.381Z,7.17
2019-05-06T03:47:58.397Z,7.16
2019-05-06T03:48:58.358Z,7.12
2019-05-06T03:49:58.354Z,7.07
2019-05-06T03:50:58.335Z,7.06
2019-05-06T03:51:58.325Z,7.06
2019-05-06T03:52:58.312Z,7.06
2019-05-06T03:53:58.331Z,7.06
2019-05-06T03:54:58.289Z,7.09
2019-05-06T03:55:58.282Z,7.06
2019-05-06T03:56:58.265Z,7.09
2019-05-06T03:57:58.255Z,7.06
2019-05-06T03:58:58.246Z,6.99
2019-05-06T03:59:58.263Z,7.06
2019-05-06T04:00:58.222Z,7.03
2019-05-06T04:01:58.211Z,6.98
2019-05-06T04:02:58.203Z,6.99
2019-05-06T04:03:58.204Z,6.98
2019-05-06T04:04:58.183Z,6.97
2019-05-06T04:05:58.180Z,6.91
2019-05-06T04:06:58.158Z,6.98
2019-05-06T04:07:58.143Z,7.07
2019-05-06T04:08:58.132Z,7.03
2019-05-06T04:09:58.119Z,6.98
2019-05-06T04:10:58.126Z,6.97
2019-05-06T04:11:58.100Z,7.02
2019-05-06T04:12:58.085Z,7.03
2019-05-06T04:13:58.074Z,7.05
2019-05-06T04:14:58.062Z,6.94
2019-05-06T04:15:58.079Z,6.91
2019-05-06T04:16:58.047Z,6.97
2019-05-06T04:17:58.027Z,6.95
2019-05-06T04:18:58.040Z,7.02
2019-05-06T04:19:58.006Z,6.99
2019-05-06T04:20:57.995Z,6.94
2019-05-06T04:21:58.004Z,6.87
2019-05-06T04:22:57.978Z,6.92
2019-05-06T04:23:57.964Z,6.89
2019-05-06T04:24:57.952Z,6.92
2019-05-06T04:25:57.939Z,6.88
2019-05-06T04:26:57.944Z,6.77
2019-05-06T04:27:57.920Z,6.79
2019-05-06T04:28:57.904Z,6.79
2019-05-06T04:29:57.892Z,6.85
2019-05-06T04:30:57.883Z,6.81
2019-05-06T04:31:57.897Z,6.85
2019-05-06T04:32:57.859Z,6.95
2019-05-06T04:34:12.333Z,6.88
2019-05-06T04:34:58.835Z,6.92
2019-05-06T04:35:57.824Z,6.92
2019-05-06T04:36:57.815Z,7.05
2019-05-06T04:37:57.821Z,6.92
2019-05-06T04:38:57.790Z,7.05
2019-05-06T04:39:57.779Z,7.02
2019-05-06T04:40:57.767Z,7.09
2019-05-06T04:41:57.755Z,7.12
2019-05-06T04:42:57.772Z,7.12
2019-05-06T04:43:57.732Z,7.15
2019-05-06T04:44:57.728Z,7.15
2019-05-06T04:45:57.721Z,7.23
2019-05-06T04:46:57.703Z,7.28
2019-05-06T04:47:57.687Z,7.21
2019-05-06T04:48:57.709Z,7.37
2019-05-06T04:49:58.590Z,7.39
2019-05-06T04:50:57.652Z,7.39
2019-05-06T04:51:57.642Z,7.37
2019-05-06T04:52:57.630Z,7.39
2019-05-06T04:53:57.624Z,7.55
2019-05-06T04:54:57.625Z,7.53
2019-05-06T04:55:57.597Z,7.49
2019-05-06T04:56:57.588Z,7.60
2019-05-06T04:57:57.581Z,7.58
2019-05-06T04:58:57.561Z,7.61
2019-05-06T04:59:57.583Z,7.68
2019-05-06T05:00:57.541Z,7.74
2019-05-06T05:01:57.539Z,7.74
2019-05-06T05:02:57.518Z,7.82
2019-05-06T05:03:57.513Z,7.82
2019-05-06T05:04:57.495Z,7.87
2019-05-06T05:05:57.502Z,8.01
2019-05-06T05:06:57.473Z,8.02
2019-05-06T05:07:57.471Z,8.10
2019-05-06T05:08:57.453Z,8.12
2019-05-06T05:09:57.439Z,8.19
2019-05-06T05:10:57.458Z,8.23
2019-05-06T05:11:57.416Z,8.19
2019-05-06T05:12:57.408Z,8.37
2019-05-06T05:13:57.404Z,8.43
2019-05-06T05:14:58.094Z,8.44
2019-05-06T05:15:57.387Z,8.53
2019-05-06T05:16:57.358Z,8.63
2019-05-06T05:17:57.346Z,8.66
2019-05-06T05:18:57.335Z,8.77
2019-05-06T05:19:57.325Z,8.83
2019-05-06T05:20:57.346Z,8.95
2019-05-06T05:21:57.302Z,9.04
2019-05-06T05:22:57.300Z,8.98
2019-05-06T05:23:57.282Z,9.14
2019-05-06T05:24:57.271Z,9.13
2019-05-06T05:25:57.256Z,9.15
2019-05-06T05:26:57.273Z,9.29
2019-05-06T05:27:57.233Z,9.40
2019-05-06T05:28:57.223Z,9.43
2019-05-06T05:29:57.211Z,9.42
2019-05-06T05:30:57.201Z,9.46
2019-05-06T05:31:57.187Z,9.50
2019-05-06T05:32:57.195Z,9.58
2019-05-06T05:33:57.164Z,9.61
2019-05-06T05:34:57.153Z,9.71
2019-05-06T05:35:57.144Z,9.66
2019-05-06T05:36:57.130Z,9.72
2019-05-06T05:37:57.147Z,9.69
2019-05-06T05:38:57.108Z,9.68
2019-05-06T05:39:57.096Z,9.74
2019-05-06T05:41:05.631Z,9.83
2019-05-06T05:41:57.631Z,9.89
2019-05-06T05:42:57.072Z,9.91
2019-05-06T05:43:57.084Z,10.01
2019-05-06T05:44:57.042Z,10.02
2019-05-06T05:46:06.666Z,10.09
2019-05-06T05:46:57.018Z,10.12
2019-05-06T05:47:57.011Z,10.20
2019-05-06T05:48:56.995Z,10.33
2019-05-06T05:49:57.013Z,10.33
2019-05-06T05:50:56.973Z,10.27
2019-05-06T05:51:56.964Z,10.40
2019-05-06T05:52:56.949Z,10.41
2019-05-06T05:53:56.940Z,10.52
2019-05-06T05:54:56.930Z,10.56
2019-05-06T05:55:56.931Z,10.64
2019-05-06T05:56:56.904Z,10.64
2019-05-06T05:57:56.894Z,10.67
2019-05-06T05:58:56.887Z,10.78
2019-05-06T05:59:56.875Z,10.76
2019-05-06T06:00:56.878Z,10.82
2019-05-06T06:01:56.850Z,10.86
2019-05-06T06:02:56.836Z,10.88
2019-05-06T06:03:56.830Z,11.00
2019-05-06T06:04:57.702Z,10.97
2019-05-06T06:05:56.821Z,10.94
2019-05-06T06:06:56.796Z,11.06
2019-05-06T06:07:56.778Z,11.09
2019-05-06T06:08:56.769Z,11.22
2019-05-06T06:09:56.757Z,11.21
2019-05-06T06:10:56.771Z,11.27
2019-05-06T06:11:56.867Z,11.40
2019-05-06T06:12:56.726Z,11.40
2019-05-06T06:13:56.711Z,11.49
2019-05-06T06:14:56.710Z,11.55
2019-05-06T06:15:56.713Z,11.51
2019-05-06T06:16:56.676Z,11.58
2019-05-06T06:17:56.665Z,11.55
2019-05-06T06:18:56.653Z,11.60
2019-05-06T06:19:56.640Z,11.61
2019-05-06T06:20:56.631Z,11.62
2019-05-06T06:21:56.637Z,11.75
2019-05-06T06:22:56.606Z,11.69
2019-05-06T06:23:58.190Z,11.76
2019-05-06T06:24:56.584Z,11.85
2019-05-06T06:25:56.580Z,11.88
2019-05-06T06:26:56.581Z,11.99
2019-05-06T06:27:56.550Z,12.09
2019-05-06T06:28:56.542Z,11.95
2019-05-06T06:29:56.528Z,12.07
2019-05-06T06:30:56.515Z,12.17
2019-05-06T06:31:56.535Z,12.20
2019-05-06T06:32:56.494Z,12.24
2019-05-06T06:33:56.490Z,12.29
2019-05-06T06:35:08.304Z,12.37
2019-05-06T06:35:57.457Z,12.41
2019-05-06T06:36:56.448Z,12.29
2019-05-06T06:37:56.472Z,12.41
2019-05-06T06:38:56.428Z,12.42
2019-05-06T06:39:56.414Z,12.52
2019-05-06T06:40:56.409Z,12.52
2019-05-06T06:41:56.396Z,12.53
2019-05-06T06:42:56.409Z,12.53
2019-05-06T06:43:56.373Z,12.54
2019-05-06T06:44:56.386Z,12.39
2019-05-06T06:45:56.349Z,12.42
2019-05-06T06:46:56.336Z,12.54
2019-05-06T06:47:56.325Z,12.59
2019-05-06T06:48:56.346Z,12.75
2019-05-06T06:49:56.302Z,12.79
2019-05-06T06:50:56.291Z,12.93
2019-05-06T06:51:56.279Z,13.07
2019-05-06T06:52:56.269Z,13.12
2019-05-06T06:53:56.260Z,13.19
2019-05-06T06:54:56.268Z,13.30
2019-05-06T06:55:56.236Z,13.32
2019-05-06T06:57:06.151Z,13.48
2019-05-06T06:57:57.208Z,13.49
2019-05-06T06:58:56.199Z,13.49
2019-05-06T06:59:56.217Z,13.57
2019-05-06T07:00:56.177Z,13.48
2019-05-06T07:01:56.167Z,13.63
2019-05-06T07:02:56.154Z,13.69
2019-05-06T07:03:56.142Z,13.75
2019-05-06T07:04:56.130Z,13.59
2019-05-06T07:05:56.138Z,13.62
2019-05-06T07:06:56.106Z,13.64
2019-05-06T07:07:56.097Z,13.73
2019-05-06T07:08:56.085Z,13.85
2019-05-06T07:09:56.075Z,13.89
2019-05-06T07:10:56.084Z,13.85
2019-05-06T07:11:56.052Z,13.91
2019-05-06T07:12:56.039Z,14.09
2019-05-06T07:13:56.032Z,14.22
2019-05-06T07:14:56.016Z,14.27
2019-05-06T07:15:56.027Z,13.99
2019-05-06T07:16:55.993Z,14.06
2019-05-06T07:17:55.981Z,14.09
2019-05-06T07:18:55.971Z,14.20
2019-05-06T07:19:55.962Z,14.25
2019-05-06T07:20:55.970Z,14.42
2019-05-06T07:21:55.938Z,14.45
2019-05-06T07:22:55.938Z,14.45
2019-05-06T07:23:55.914Z,14.45
2019-05-06T07:24:55.902Z,14.55
2019-05-06T07:25:55.909Z,14.58
2019-05-06T07:26:55.879Z,14.69
2019-05-06T07:27:55.870Z,14.70
2019-05-06T07:28:55.861Z,14.80
2019-05-06T07:29:55.847Z,14.72
2019-05-06T07:30:55.870Z,14.75
2019-05-06T07:31:55.824Z,14.91
2019-05-06T07:32:55.817Z,14.81
2019-05-06T07:33:55.799Z,14.92
2019-05-06T07:34:55.790Z,14.62
2019-05-06T07:35:55.786Z,14.37
2019-05-06T07:36:55.786Z,14.22
2019-05-06T07:37:55.754Z,14.07
2019-05-06T07:38:55.743Z,13.84
2019-05-06T07:39:55.737Z,13.71
2019-05-06T07:40:55.720Z,13.73
2019-05-06T07:41:55.730Z,13.79
2019-05-06T07:42:55.701Z,14.03
2019-05-06T07:43:55.685Z,14.17
2019-05-06T07:44:55.676Z,14.32
2019-05-06T07:45:55.662Z,14.52
2019-05-06T07:46:55.668Z,14.60
2019-05-06T07:47:55.647Z,14.47
2019-05-06T07:48:55.630Z,14.50
2019-05-06T07:49:55.635Z,14.58
2019-05-06T07:50:55.606Z,14.81
2019-05-06T07:51:55.624Z,15.11
2019-05-06T07:52:55.584Z,15.11
2019-05-06T07:53:55.573Z,14.75
2019-05-06T07:54:55.563Z,14.58
2019-05-06T07:55:55.563Z,14.15
2019-05-06T07:56:55.556Z,13.91
2019-05-06T07:57:55.558Z,13.77
2019-05-06T07:58:55.515Z,13.84
2019-05-06T07:59:55.505Z,14.17
2019-05-06T08:00:55.492Z,13.99
2019-05-06T08:01:55.488Z,13.95
2019-05-06T08:02:55.469Z,14.22
2019-05-06T08:03:55.488Z,14.15
2019-05-06T08:04:55.447Z,13.91
2019-05-06T08:05:58.601Z,13.89
2019-05-06T08:06:55.426Z,13.71
2019-05-06T08:07:55.413Z,13.69
2019-05-06T08:08:55.402Z,13.54
2019-05-06T08:09:55.407Z,13.77
2019-05-06T08:10:55.381Z,13.85
2019-05-06T08:11:55.366Z,13.91
2019-05-06T08:12:55.360Z,14.27
2019-05-06T08:13:55.350Z,14.64
2019-05-06T08:14:55.363Z,14.70
2019-05-06T08:15:55.333Z,14.98
2019-05-06T08:16:55.310Z,15.17
2019-05-06T08:17:55.298Z,15.14
2019-05-06T08:18:55.287Z,14.88
2019-05-06T08:19:55.274Z,14.68
2019-05-06T08:20:55.286Z,14.95
2019-05-06T08:21:55.253Z,14.98
2019-05-06T08:22:56.613Z,15.21
2019-05-06T08:23:55.230Z,15.01
2019-05-06T08:24:55.223Z,14.84
2019-05-06T08:26:09.066Z,14.57
2019-05-06T08:26:56.705Z,14.46
2019-05-06T08:27:55.189Z,14.28
2019-05-06T08:28:56.176Z,14.24
2019-05-06T08:29:55.166Z,14.60
2019-05-06T08:30:55.173Z,14.98
2019-05-06T08:31:55.145Z,15.17
2019-05-06T08:32:55.138Z,15.20
2019-05-06T08:33:55.125Z,15.41
2019-05-06T08:34:55.113Z,15.68
2019-05-06T08:36:08.918Z,16.01
2019-05-06T08:36:56.087Z,16.11
2019-05-06T08:37:55.075Z,16.25
2019-05-06T08:38:55.065Z,16.00
2019-05-06T08:39:55.083Z,15.74
2019-05-06T08:40:55.062Z,15.51
2019-05-06T08:41:55.033Z,15.35
2019-05-06T08:42:55.025Z,15.21
2019-05-06T08:43:55.010Z,15.06
2019-05-06T08:44:55.000Z,14.81
2019-05-06T08:45:55.013Z,14.68
2019-05-06T08:46:54.979Z,14.45
2019-05-06T08:47:54.964Z,14.29
2019-05-06T08:48:54.954Z,14.24
2019-05-06T08:49:54.949Z,14.20
2019-05-06T08:50:54.929Z,14.14
2019-05-06T08:51:54.953Z,14.18
2019-05-06T08:52:54.909Z,13.99
2019-05-06T08:53:54.895Z,14.03
2019-05-06T08:54:54.883Z,13.91
2019-05-06T08:55:54.872Z,13.99
2019-05-06T08:56:54.863Z,13.85
2019-05-06T08:57:54.869Z,13.73
2019-05-06T08:58:54.844Z,13.71
2019-05-06T08:59:54.828Z,13.70
2019-05-06T09:00:57.518Z,13.69
2019-05-06T09:01:54.805Z,13.69
2019-05-06T09:02:54.824Z,13.67
2019-05-06T09:04:08.861Z,13.64
2019-05-06T09:04:55.771Z,13.67
2019-05-06T09:05:54.759Z,13.78
2019-05-06T09:06:54.749Z,14.25
2019-05-06T09:07:54.735Z,14.27
2019-05-06T09:08:56.813Z,14.14
2019-05-06T09:09:54.713Z,14.17
2019-05-06T09:10:54.704Z,14.09
2019-05-06T09:11:54.690Z,14.12
2019-05-06T09:12:54.682Z,14.17
2019-05-06T09:13:54.666Z,14.20
2019-05-06T09:14:54.674Z,13.99
2019-05-06T09:15:54.643Z,13.84
2019-05-06T09:16:54.632Z,13.81
2019-05-06T09:17:54.628Z,13.67
2019-05-06T09:18:54.613Z,13.64
2019-05-06T09:19:54.635Z,13.69
2019-05-06T09:20:54.584Z,13.64
2019-05-06T09:21:54.575Z,13.63
2019-05-06T09:22:54.564Z,13.69
2019-05-06T09:23:54.550Z,13.69
2019-05-06T09:24:54.543Z,14.06
2019-05-06T09:25:54.547Z,14.58
2019-05-06T09:26:54.516Z,14.28
2019-05-06T09:27:54.506Z,14.10
2019-05-06T09:28:54.495Z,13.99
2019-05-06T09:29:54.484Z,13.87
2019-05-06T09:30:54.486Z,13.81
2019-05-06T09:31:54.461Z,13.81
2019-05-06T09:32:54.447Z,13.69
2019-05-06T09:33:54.436Z,13.60
2019-05-06T09:34:54.428Z,13.51
2019-05-06T09:35:54.437Z,13.48
2019-05-06T09:36:55.017Z,13.38
2019-05-06T09:37:54.392Z,13.33
2019-05-06T09:38:54.380Z,13.22
2019-05-06T09:39:54.373Z,13.17
2019-05-06T09:40:54.383Z,13.17
2019-05-06T09:41:58.015Z,13.03
2019-05-06T09:42:54.332Z,13.00
2019-05-06T09:43:54.323Z,12.90
2019-05-06T09:44:54.627Z,12.87
2019-05-06T09:45:54.300Z,12.78
2019-05-06T09:46:54.322Z,12.77
2019-05-06T09:47:54.278Z,12.72
2019-05-06T09:48:54.265Z,12.64
2019-05-06T09:49:54.253Z,12.54
2019-05-06T09:50:54.245Z,12.47
2019-05-06T09:51:54.232Z,12.41
2019-05-06T09:52:54.243Z,12.42
2019-05-06T09:53:54.208Z,12.45
2019-05-06T09:54:54.198Z,12.45
2019-05-06T09:55:54.188Z,12.39
2019-05-06T09:56:54.182Z,12.42
2019-05-06T09:57:54.198Z,12.41
2019-05-06T09:58:54.153Z,12.42
2019-05-06T09:59:54.141Z,12.50
2019-05-06T10:00:54.128Z,12.47
2019-05-06T10:01:54.732Z,12.53
2019-05-06T10:02:54.110Z,12.45
2019-05-06T10:03:54.123Z,12.45
2019-05-06T10:04:54.085Z,12.41
2019-05-06T10:05:54.072Z,12.41
2019-05-06T10:06:59.068Z,12.47
2019-05-06T10:07:55.049Z,12.49
2019-05-06T10:08:54.041Z,12.41
2019-05-06T10:09:54.057Z,12.42
2019-05-06T10:10:59.490Z,12.38
2019-05-06T10:11:55.011Z,12.39
2019-05-06T10:12:54.000Z,12.37
2019-05-06T10:13:53.981Z,12.31
2019-05-06T10:14:53.977Z,12.42
2019-05-06T10:15:57.163Z,12.41
2019-05-06T10:16:53.948Z,12.41
2019-05-06T10:17:53.938Z,12.45
2019-05-06T10:18:53.926Z,12.52
2019-05-06T10:19:53.916Z,12.60
2019-05-06T10:20:53.915Z,12.53
2019-05-06T10:21:53.893Z,12.54
2019-05-06T10:22:53.880Z,12.54
2019-05-06T10:23:53.871Z,12.54
2019-05-06T10:24:53.854Z,12.53
2019-05-06T10:25:53.859Z,12.59
2019-05-06T10:26:53.831Z,12.54
2019-05-06T10:27:53.820Z,12.56
2019-05-06T10:28:53.826Z,12.77
2019-05-06T10:29:53.797Z,12.71
2019-05-06T10:30:53.818Z,12.67
2019-05-06T10:31:53.774Z,12.70
2019-05-06T10:32:53.761Z,12.53
2019-05-06T10:33:53.752Z,12.42
2019-05-06T10:34:53.747Z,12.41
2019-05-06T10:35:53.732Z,12.39
2019-05-06T10:36:53.734Z,12.46
2019-05-06T10:37:53.709Z,12.50
2019-05-06T10:38:53.697Z,12.57
2019-05-06T10:39:53.682Z,12.56
2019-05-06T10:41:00.892Z,12.57
2019-05-06T10:41:54.676Z,12.70
2019-05-06T10:42:53.656Z,12.70
2019-05-06T10:43:53.641Z,12.90
2019-05-06T10:44:53.627Z,12.77
2019-05-06T10:45:53.614Z,13.03
2019-05-06T10:46:53.622Z,13.20
2019-05-06T10:47:53.867Z,13.45
2019-05-06T10:48:53.603Z,13.63
2019-05-06T10:49:53.572Z,13.75
2019-05-06T10:50:53.556Z,13.91
2019-05-06T10:51:53.562Z,14.32
2019-05-06T10:52:53.534Z,14.52
2019-05-06T10:53:53.523Z,14.83
2019-05-06T10:54:53.511Z,15.41
2019-05-06T10:55:53.815Z,16.52
2019-05-06T10:56:57.075Z,17.87
2019-05-06T10:57:53.486Z,18.20
2019-05-06T10:58:53.466Z,18.48
2019-05-06T10:59:53.454Z,19.46
2019-05-06T11:00:53.447Z,19.40
2019-05-06T11:01:53.433Z,18.99
2019-05-06T11:02:53.440Z,18.58
2019-05-06T11:03:53.412Z,18.27
2019-05-06T11:04:53.399Z,17.77
2019-05-06T11:05:53.822Z,17.25
2019-05-06T11:06:53.378Z,16.78
2019-05-06T11:07:53.397Z,16.50
2019-05-06T11:08:53.353Z,16.33
2019-05-06T11:09:53.461Z,15.75
2019-05-06T11:10:53.698Z,15.65
2019-05-06T11:11:53.316Z,15.57
2019-05-06T11:12:53.306Z,15.44
2019-05-06T11:13:53.341Z,15.36
2019-05-06T11:14:55.789Z,15.35
2019-05-06T11:15:55.659Z,15.38
2019-05-06T11:16:53.260Z,15.29
2019-05-06T11:17:53.251Z,15.28
2019-05-06T11:18:53.616Z,15.31
2019-05-06T11:19:53.412Z,15.28
2019-05-06T11:20:56.361Z,15.25
2019-05-06T11:21:53.296Z,15.10
2019-05-06T11:22:53.195Z,15.93
2019-05-06T11:23:53.184Z,16.91
2019-05-06T11:24:53.172Z,16.76
2019-05-06T11:25:53.183Z,16.73
2019-05-06T11:26:53.487Z,17.11
2019-05-06T11:27:53.141Z,17.01
2019-05-06T11:28:53.131Z,16.83
2019-05-06T11:29:53.215Z,16.71
2019-05-06T11:30:53.123Z,16.52
2019-05-06T11:31:54.319Z,16.50
2019-05-06T11:32:54.842Z,16.41
2019-05-06T11:33:53.071Z,16.05
2019-05-06T11:34:53.073Z,16.01
2019-05-06T11:35:53.750Z,15.93
2019-05-06T11:36:53.039Z,15.84
2019-05-06T11:37:54.350Z,15.69
2019-05-06T11:38:53.017Z,15.72
2019-05-06T11:39:53.284Z,15.82
2019-05-06T11:40:53.358Z,15.76
2019-05-06T11:42:14.450Z,15.89
2019-05-06T11:42:53.972Z,15.86
2019-05-06T11:43:52.964Z,15.92
2019-05-06T11:44:53.276Z,16.00
2019-05-06T11:45:52.955Z,16.04
2019-05-06T11:46:52.929Z,16.11
2019-05-06T11:47:55.802Z,16.15
2019-05-06T11:48:52.934Z,16.15
2019-05-06T11:49:55.957Z,16.33
2019-05-06T11:50:52.904Z,16.43
2019-05-06T11:51:52.870Z,16.71
2019-05-06T11:52:55.788Z,17.40
2019-05-06T11:53:54.170Z,17.66
2019-05-06T11:54:53.093Z,17.26
2019-05-06T11:55:54.783Z,16.93
2019-05-06T11:56:57.787Z,16.75
2019-05-06T11:57:53.801Z,16.73
2019-05-06T11:58:53.315Z,16.64
2019-05-06T11:59:53.004Z,16.48
2019-05-06T12:00:52.767Z,16.61
2019-05-06T12:01:53.389Z,16.42
2019-05-06T12:02:53.378Z,16.35
2019-05-06T12:03:52.736Z,16.14
2019-05-06T12:04:53.054Z,16.02
2019-05-06T12:05:52.713Z,15.92
2019-05-06T12:07:09.261Z,15.87
2019-05-06T12:08:06.908Z,15.84
2019-05-06T12:08:53.677Z,15.84
2019-05-06T12:09:53.945Z,15.89
2019-05-06T12:10:52.657Z,15.90
2019-05-06T12:11:53.029Z,15.92
2019-05-06T12:12:53.318Z,15.87
2019-05-06T12:13:53.211Z,16.05
2019-05-06T12:14:52.947Z,16.14
2019-05-06T12:15:52.602Z,16.21
2019-05-06T12:16:55.171Z,16.15
2019-05-06T12:17:53.501Z,16.17
2019-05-06T12:18:53.064Z,16.08
2019-05-06T12:19:52.998Z,15.97
2019-05-06T12:20:52.841Z,15.67
2019-05-06T12:21:52.535Z,15.54
2019-05-06T12:22:52.940Z,15.49
2019-05-06T12:23:53.841Z,15.44
2019-05-06T12:24:52.705Z,15.39
2019-05-06T12:25:52.957Z,15.54
2019-05-06T12:26:52.483Z,15.65
2019-05-06T12:27:52.712Z,16.02
2019-05-06T12:28:53.190Z,16.05
2019-05-06T12:29:52.871Z,15.84
2019-05-06T12:30:52.551Z,15.87
2019-05-06T12:31:52.956Z,15.72
2019-05-06T12:32:52.701Z,15.56
2019-05-06T12:33:53.351Z,15.43
2019-05-06T12:34:52.570Z,15.32
2019-05-06T12:35:52.393Z,15.27
2019-05-06T12:36:52.810Z,15.17
2019-05-06T12:37:53.069Z,15.03
2019-05-06T12:38:52.465Z,14.83
2019-05-06T12:39:53.364Z,14.73
2019-05-06T12:40:53.056Z,14.65
2019-05-06T12:41:53.455Z,14.50
2019-05-06T12:42:53.464Z,14.43
2019-05-06T12:43:53.275Z,14.37
2019-05-06T12:44:52.962Z,14.39
2019-05-06T12:45:53.134Z,14.27
2019-05-06T12:46:52.917Z,14.32
2019-05-06T12:47:53.378Z,14.39
2019-05-06T12:48:52.252Z,14.43
2019-05-06T12:49:53.325Z,14.42
2019-05-06T12:50:52.508Z,14.46
2019-05-06T12:51:53.813Z,14.47
2019-05-06T12:52:52.772Z,14.46
2019-05-06T12:53:52.854Z,14.46
2019-05-06T12:54:54.368Z,14.45
2019-05-06T12:55:53.179Z,14.57
2019-05-06T12:56:52.152Z,14.45
2019-05-06T12:58:02.796Z,14.24
2019-05-06T12:58:52.649Z,14.22
2019-05-06T12:59:53.013Z,14.03
2019-05-06T13:00:54.281Z,13.84
2019-05-06T13:01:54.062Z,13.84
2019-05-06T13:02:53.086Z,13.82